sensor_id;sensor_type;location;lat;lon;timestamp;pressure;altitude;pressure_sealevel;temperature;humidity
81913;BME280;71377;50.698;7.164;2023-10-08T00:02:26;101740.97;;;16.44;88.56
81913;BME280;71377;50.698;7.164;2023-10-08T00:04:53;101740.69;;;16.50;88.15
81913;BME280;71377;50.698;7.164;2023-10-08T00:07:23;101748.72;;;16.49;88.34
81913;BME280;71377;50.698;7.164;2023-10-08T00:09:51;101756.72;;;16.47;88.71
81913;BME280;71377;50.698;7.164;2023-10-08T00:12:18;101750.38;;;16.51;88.38
81913;BME280;71377;50.698;7.164;2023-10-08T00:14:48;101757.66;;;16.46;88.61
81913;BME280;71377;50.698;7.164;2023-10-08T00:17:16;101765.63;;;16.46;88.80
81913;BME280;71377;50.698;7.164;2023-10-08T00:19:43;101758.75;;;16.62;87.33
81913;BME280;71377;50.698;7.164;2023-10-08T00:22:11;101761.84;;;16.52;88.42
81913;BME280;71377;50.698;7.164;2023-10-08T00:24:40;101759.63;;;16.41;89.24
81913;BME280;71377;50.698;7.164;2023-10-08T00:27:08;101759.91;;;16.35;89.81
81913;BME280;71377;50.698;7.164;2023-10-08T00:29:35;101761.44;;;16.40;89.36
81913;BME280;71377;50.698;7.164;2023-10-08T00:32:06;101760.84;;;16.34;89.54
81913;BME280;71377;50.698;7.164;2023-10-08T00:34:42;101749.88;;;16.21;90.89
81913;BME280;71377;50.698;7.164;2023-10-08T00:37:12;101753.03;;;16.09;91.51
81913;BME280;71377;50.698;7.164;2023-10-08T00:39:41;101753.88;;;16.09;92.26
81913;BME280;71377;50.698;7.164;2023-10-08T00:42:08;101754.34;;;15.99;92.86
81913;BME280;71377;50.698;7.164;2023-10-08T00:44:35;101754.34;;;15.99;92.81
81913;BME280;71377;50.698;7.164;2023-10-08T00:47:15;101754.38;;;15.97;92.79
81913;BME280;71377;50.698;7.164;2023-10-08T00:49:43;101751.25;;;16.09;92.72
81913;BME280;71377;50.698;7.164;2023-10-08T00:52:13;101754.38;;;15.97;92.70
81913;BME280;71377;50.698;7.164;2023-10-08T00:54:42;101768.75;;;15.92;92.43
81913;BME280;71377;50.698;7.164;2023-10-08T00:57:20;101761.25;;;15.79;93.81
81913;BME280;71377;50.698;7.164;2023-10-08T00:59:48;101760.66;;;15.73;94.19
81913;BME280;71377;50.698;7.164;2023-10-08T01:02:24;101769.75;;;15.66;94.34
81913;BME280;71377;50.698;7.164;2023-10-08T01:04:56;101769.31;;;15.53;95.04
81913;BME280;71377;50.698;7.164;2023-10-08T01:07:23;101765.72;;;15.55;95.37
81913;BME280;71377;50.698;7.164;2023-10-08T01:09:51;101769.25;;;15.54;95.57
81913;BME280;71377;50.698;7.164;2023-10-08T01:12:23;101770.16;;;15.55;95.82
81913;BME280;71377;50.698;7.164;2023-10-08T01:15:07;101780.34;;;15.66;95.67
81913;BME280;71377;50.698;7.164;2023-10-08T01:17:44;101765.47;;;15.62;96.01
81913;BME280;71377;50.698;7.164;2023-10-08T01:20:31;101763.06;;;15.55;96.17
81913;BME280;71377;50.698;7.164;2023-10-08T01:23:04;101760.56;;;15.51;96.44
81913;BME280;71377;50.698;7.164;2023-10-08T01:25:35;101758.84;;;15.50;95.94
81913;BME280;71377;50.698;7.164;2023-10-08T01:28:02;101756.31;;;15.47;95.90
81913;BME280;71377;50.698;7.164;2023-10-08T01:30:35;101752.81;;;15.46;95.94
81913;BME280;71377;50.698;7.164;2023-10-08T01:33:08;101762.66;;;15.43;95.78
81913;BME280;71377;50.698;7.164;2023-10-08T01:35:39;101766.94;;;15.45;96.20
81913;BME280;71377;50.698;7.164;2023-10-08T01:38:05;101765.34;;;15.41;96.30
81913;BME280;71377;50.698;7.164;2023-10-08T01:40:33;101762.84;;;15.38;95.92
81913;BME280;71377;50.698;7.164;2023-10-08T01:43:00;101763.06;;;15.32;96.32
81913;BME280;71377;50.698;7.164;2023-10-08T01:45:26;101758.91;;;15.25;96.66
81913;BME280;71377;50.698;7.164;2023-10-08T01:47:52;101757.97;;;15.26;96.17
81913;BME280;71377;50.698;7.164;2023-10-08T01:50:21;101746.81;;;15.18;96.91
81913;BME280;71377;50.698;7.164;2023-10-08T01:52:48;101747.91;;;15.12;97.45
81913;BME280;71377;50.698;7.164;2023-10-08T01:55:15;101748.06;;;15.08;97.63
81913;BME280;71377;50.698;7.164;2023-10-08T01:57:45;101749.63;;;15.13;97.70
81913;BME280;71377;50.698;7.164;2023-10-08T02:00:12;101745.53;;;15.05;98.14
81913;BME280;71377;50.698;7.164;2023-10-08T02:02:46;101743.31;;;14.92;99.23
81913;BME280;71377;50.698;7.164;2023-10-08T02:05:14;101735.63;;;14.86;99.25
81913;BME280;71377;50.698;7.164;2023-10-08T02:07:42;101740.91;;;14.86;99.15
81913;BME280;71377;50.698;7.164;2023-10-08T02:10:12;101751.59;;;14.83;99.12
81913;BME280;71377;50.698;7.164;2023-10-08T02:12:41;101760.44;;;14.82;99.31
81913;BME280;71377;50.698;7.164;2023-10-08T02:15:08;101759.91;;;14.73;99.45
81913;BME280;71377;50.698;7.164;2023-10-08T02:17:35;101762.59;;;14.71;99.71
81913;BME280;71377;50.698;7.164;2023-10-08T02:20:01;101761.47;;;14.78;99.45
81913;BME280;71377;50.698;7.164;2023-10-08T02:22:31;101767.91;;;14.71;99.42
81913;BME280;71377;50.698;7.164;2023-10-08T02:25:02;101772.97;;;14.77;99.13
81913;BME280;71377;50.698;7.164;2023-10-08T02:27:29;101775.88;;;14.69;98.86
81913;BME280;71377;50.698;7.164;2023-10-08T02:29:59;101765.19;;;14.73;99.34
81913;BME280;71377;50.698;7.164;2023-10-08T02:32:25;101769.06;;;14.62;99.72
81913;BME280;71377;50.698;7.164;2023-10-08T02:34:52;101757.78;;;14.57;99.60
81913;BME280;71377;50.698;7.164;2023-10-08T02:37:18;101756.13;;;14.55;99.88
81913;BME280;71377;50.698;7.164;2023-10-08T02:39:45;101758.75;;;14.55;100.00
81913;BME280;71377;50.698;7.164;2023-10-08T02:42:12;101762.06;;;14.61;99.77
81913;BME280;71377;50.698;7.164;2023-10-08T02:44:40;101763.84;;;14.61;99.55
81913;BME280;71377;50.698;7.164;2023-10-08T02:47:09;101765.03;;;14.51;100.00
81913;BME280;71377;50.698;7.164;2023-10-08T02:49:38;101767.94;;;14.43;100.00
81913;BME280;71377;50.698;7.164;2023-10-08T02:52:07;101782.28;;;14.36;100.00
81913;BME280;71377;50.698;7.164;2023-10-08T02:54:35;101771.44;;;14.43;100.00
81913;BME280;71377;50.698;7.164;2023-10-08T02:57:04;101778.53;;;14.43;100.00
81913;BME280;71377;50.698;7.164;2023-10-08T02:59:36;101783.72;;;14.46;99.83
81913;BME280;71377;50.698;7.164;2023-10-08T03:02:11;101779.41;;;14.42;99.98
81913;BME280;71377;50.698;7.164;2023-10-08T03:04:45;101777.69;;;14.41;100.00
81913;BME280;71377;50.698;7.164;2023-10-08T03:07:15;101775.00;;;14.42;100.00
81913;BME280;71377;50.698;7.164;2023-10-08T03:09:49;101781.81;;;14.51;99.88
81913;BME280;71377;50.698;7.164;2023-10-08T03:12:17;101782.75;;;14.49;100.00
81913;BME280;71377;50.698;7.164;2023-10-08T03:14:44;101796.69;;;14.54;100.00
81913;BME280;71377;50.698;7.164;2023-10-08T03:17:30;101794.84;;;14.56;100.00
81913;BME280;71377;50.698;7.164;2023-10-08T03:20:04;101781.69;;;14.54;99.99
81913;BME280;71377;50.698;7.164;2023-10-08T03:22:51;101768.53;;;14.53;100.00
81913;BME280;71377;50.698;7.164;2023-10-08T03:25:17;101762.41;;;14.51;99.96
81913;BME280;71377;50.698;7.164;2023-10-08T03:27:45;101773.38;;;14.65;99.16
81913;BME280;71377;50.698;7.164;2023-10-08T03:30:11;101769.75;;;14.69;99.44
81913;BME280;71377;50.698;7.164;2023-10-08T03:32:42;101778.88;;;14.59;100.00
81913;BME280;71377;50.698;7.164;2023-10-08T03:35:10;101794.84;;;14.56;99.78
81913;BME280;71377;50.698;7.164;2023-10-08T03:37:38;101798.41;;;14.55;99.79
81913;BME280;71377;50.698;7.164;2023-10-08T03:40:12;101799.34;;;14.54;100.00
81913;BME280;71377;50.698;7.164;2023-10-08T03:42:58;101789.25;;;14.65;99.39
81913;BME280;71377;50.698;7.164;2023-10-08T03:45:24;101789.44;;;14.60;99.60
81913;BME280;71377;50.698;7.164;2023-10-08T03:48:10;101787.72;;;14.58;99.93
81913;BME280;71377;50.698;7.164;2023-10-08T03:50:41;101797.56;;;14.54;100.00
81913;BME280;71377;50.698;7.164;2023-10-08T03:53:09;101796.56;;;14.57;100.00
81913;BME280;71377;50.698;7.164;2023-10-08T03:55:39;101800.25;;;14.53;99.71
81913;BME280;71377;50.698;7.164;2023-10-08T03:58:09;101818.66;;;14.56;100.00
81913;BME280;71377;50.698;7.164;2023-10-08T04:00:54;101817.53;;;14.63;99.82
81913;BME280;71377;50.698;7.164;2023-10-08T04:03:34;101809.56;;;14.64;99.61
81913;BME280;71377;50.698;7.164;2023-10-08T04:06:20;101808.69;;;14.64;99.44
81913;BME280;71377;50.698;7.164;2023-10-08T04:08:55;101799.84;;;14.65;99.67
81913;BME280;71377;50.698;7.164;2023-10-08T04:11:38;101799.72;;;14.68;99.27
81913;BME280;71377;50.698;7.164;2023-10-08T04:14:25;101797.78;;;14.73;99.48
81913;BME280;71377;50.698;7.164;2023-10-08T04:16:53;101810.28;;;14.68;98.94
81913;BME280;71377;50.698;7.164;2023-10-08T04:19:21;101804.16;;;14.67;99.12
81913;BME280;71377;50.698;7.164;2023-10-08T04:21:56;101790.06;;;14.67;99.23
81913;BME280;71377;50.698;7.164;2023-10-08T04:24:24;101798.22;;;14.61;99.11
81913;BME280;71377;50.698;7.164;2023-10-08T04:27:17;101791.22;;;14.60;99.32
81913;BME280;71377;50.698;7.164;2023-10-08T04:29:44;101789.44;;;14.59;99.15
81913;BME280;71377;50.698;7.164;2023-10-08T04:32:16;101787.72;;;14.58;99.17
81913;BME280;71377;50.698;7.164;2023-10-08T04:34:51;101786.88;;;14.57;98.97
81913;BME280;71377;50.698;7.164;2023-10-08T04:37:18;101787.66;;;14.61;99.05
81913;BME280;71377;50.698;7.164;2023-10-08T04:39:47;101786.88;;;14.57;99.19
81913;BME280;71377;50.698;7.164;2023-10-08T04:42:24;101786.00;;;14.57;99.23
81913;BME280;71377;50.698;7.164;2023-10-08T04:44:53;101776.19;;;14.60;99.16
81913;BME280;71377;50.698;7.164;2023-10-08T04:47:20;101784.28;;;14.56;99.36
81913;BME280;71377;50.698;7.164;2023-10-08T04:49:59;101786.19;;;14.51;99.33
81913;BME280;71377;50.698;7.164;2023-10-08T04:52:26;101784.66;;;14.45;99.48
81913;BME280;71377;50.698;7.164;2023-10-08T04:54:54;101794.13;;;14.51;99.53
81913;BME280;71377;50.698;7.164;2023-10-08T04:57:21;101811.84;;;14.49;99.32
81913;BME280;71377;50.698;7.164;2023-10-08T04:59:52;101819.78;;;14.49;99.63
81913;BME280;71377;50.698;7.164;2023-10-08T05:02:20;101819.03;;;14.43;99.74
81913;BME280;71377;50.698;7.164;2023-10-08T05:05:07;101817.13;;;14.49;99.47
81913;BME280;71377;50.698;7.164;2023-10-08T05:07:36;101814.09;;;14.61;98.89
81913;BME280;71377;50.698;7.164;2023-10-08T05:10:13;101816.97;;;14.53;99.58
81913;BME280;71377;50.698;7.164;2023-10-08T05:12:53;101839.09;;;14.51;99.65
81913;BME280;71377;50.698;7.164;2023-10-08T05:15:32;101833.78;;;14.52;99.80
81913;BME280;71377;50.698;7.164;2023-10-08T05:18:29;101840.78;;;14.53;99.89
81913;BME280;71377;50.698;7.164;2023-10-08T05:21:15;101840.63;;;14.58;99.76
81913;BME280;71377;50.698;7.164;2023-10-08T05:24:02;101852.91;;;14.60;99.04
81913;BME280;71377;50.698;7.164;2023-10-08T05:26:38;101865.44;;;14.54;99.35
81913;BME280;71377;50.698;7.164;2023-10-08T05:29:09;101852.28;;;14.52;99.43
81913;BME280;71377;50.698;7.164;2023-10-08T05:31:54;101845.34;;;14.48;99.46
81913;BME280;71377;50.698;7.164;2023-10-08T05:34:40;101835.81;;;14.42;99.82
81913;BME280;71377;50.698;7.164;2023-10-08T05:37:17;101831.25;;;14.48;99.49
81913;BME280;71377;50.698;7.164;2023-10-08T05:40:04;101836.06;;;14.35;99.75
81913;BME280;71377;50.698;7.164;2023-10-08T05:42:47;101822.28;;;14.25;100.00
81913;BME280;71377;50.698;7.164;2023-10-08T05:45:16;101825.44;;;14.36;99.58
81913;BME280;71377;50.698;7.164;2023-10-08T05:47:58;101828.38;;;14.27;100.00
81913;BME280;71377;50.698;7.164;2023-10-08T05:50:40;101837.09;;;14.29;100.00
81913;BME280;71377;50.698;7.164;2023-10-08T05:53:09;101851.25;;;14.28;100.00
81913;BME280;71377;50.698;7.164;2023-10-08T05:55:46;101855.72;;;14.26;100.00
81913;BME280;71377;50.698;7.164;2023-10-08T05:58:27;101861.19;;;14.20;100.00
81913;BME280;71377;50.698;7.164;2023-10-08T06:01:11;101861.00;;;14.26;100.00
81913;BME280;71377;50.698;7.164;2023-10-08T06:03:52;101862.63;;;14.30;100.00
81913;BME280;71377;50.698;7.164;2023-10-08T06:06:39;101856.34;;;14.34;100.00
81913;BME280;71377;50.698;7.164;2023-10-08T06:09:13;101859.75;;;14.38;100.00
81913;BME280;71377;50.698;7.164;2023-10-08T06:11:43;101861.31;;;14.45;100.00
81913;BME280;71377;50.698;7.164;2023-10-08T06:14:23;101866.66;;;14.42;100.00
81913;BME280;71377;50.698;7.164;2023-10-08T06:17:15;101884.09;;;14.49;100.00
81913;BME280;71377;50.698;7.164;2023-10-08T06:20:01;101888.56;;;14.47;100.00
81913;BME280;71377;50.698;7.164;2023-10-08T06:22:36;101887.59;;;14.50;100.00
81913;BME280;71377;50.698;7.164;2023-10-08T06:25:03;101894.53;;;14.54;100.00
81913;BME280;71377;50.698;7.164;2023-10-08T06:27:50;101909.91;;;14.69;100.00
81913;BME280;71377;50.698;7.164;2023-10-08T06:30:22;101909.81;;;14.72;99.80
81913;BME280;71377;50.698;7.164;2023-10-08T06:32:50;101907.28;;;14.69;99.65
81913;BME280;71377;50.698;7.164;2023-10-08T06:35:17;101903.78;;;14.67;99.94
81913;BME280;71377;50.698;7.164;2023-10-08T06:37:47;101911.66;;;14.70;99.84
81913;BME280;71377;50.698;7.164;2023-10-08T06:40:16;101912.56;;;14.69;99.81
81913;BME280;71377;50.698;7.164;2023-10-08T06:43:01;101916.88;;;14.72;99.74
81913;BME280;71377;50.698;7.164;2023-10-08T06:45:43;101921.13;;;14.77;99.50
81913;BME280;71377;50.698;7.164;2023-10-08T06:48:10;101919.28;;;14.79;99.80
81913;BME280;71377;50.698;7.164;2023-10-08T06:50:45;101908.41;;;14.88;99.37
81913;BME280;71377;50.698;7.164;2023-10-08T06:53:12;101912.66;;;14.92;98.97
81913;BME280;71377;50.698;7.164;2023-10-08T06:55:44;101925.19;;;15.14;98.61
81913;BME280;71377;50.698;7.164;2023-10-08T06:58:11;101915.84;;;15.02;98.41
81913;BME280;71377;50.698;7.164;2023-10-08T07:00:38;101910.56;;;15.02;98.78
81913;BME280;71377;50.698;7.164;2023-10-08T07:03:09;101906.19;;;15.01;99.02
81913;BME280;71377;50.698;7.164;2023-10-08T07:05:43;101900.66;;;15.09;98.77
81913;BME280;71377;50.698;7.164;2023-10-08T07:08:11;101902.91;;;15.19;96.92
81913;BME280;71377;50.698;7.164;2023-10-08T07:10:41;101892.13;;;15.25;96.75
81913;BME280;71377;50.698;7.164;2023-10-08T07:13:08;101885.75;;;15.31;96.37
81913;BME280;71377;50.698;7.164;2023-10-08T07:15:34;101892.91;;;15.29;95.28
81913;BME280;71377;50.698;7.164;2023-10-08T07:18:05;101896.19;;;15.36;94.40
81913;BME280;71377;50.698;7.164;2023-10-08T07:20:37;101907.53;;;15.39;94.55
81913;BME280;71377;50.698;7.164;2023-10-08T07:23:06;101923.31;;;15.42;95.61
81913;BME280;71377;50.698;7.164;2023-10-08T07:25:38;101910.41;;;15.58;95.41
81913;BME280;71377;50.698;7.164;2023-10-08T07:28:05;101911.38;;;15.55;95.96
81913;BME280;71377;50.698;7.164;2023-10-08T07:30:37;101915.81;;;15.55;96.43
81913;BME280;71377;50.698;7.164;2023-10-08T07:33:06;101915.41;;;15.67;95.83
81913;BME280;71377;50.698;7.164;2023-10-08T07:35:32;101897.50;;;15.74;95.15
81913;BME280;71377;50.698;7.164;2023-10-08T07:38:05;101900.53;;;15.87;94.82
81913;BME280;71377;50.698;7.164;2023-10-08T07:40:35;101890.38;;;15.99;92.63
81913;BME280;71377;50.698;7.164;2023-10-08T07:43:03;101906.28;;;15.98;92.39
81913;BME280;71377;50.698;7.164;2023-10-08T07:45:34;101904.97;;;15.86;92.32
81913;BME280;71377;50.698;7.164;2023-10-08T07:48:02;101905.50;;;15.96;91.93
81913;BME280;71377;50.698;7.164;2023-10-08T07:50:41;101911.44;;;16.02;92.00
81913;BME280;71377;50.698;7.164;2023-10-08T07:53:07;101908.00;;;16.00;91.83
81913;BME280;71377;50.698;7.164;2023-10-08T07:55:35;101897.38;;;16.00;93.07
81913;BME280;71377;50.698;7.164;2023-10-08T07:58:01;101892.47;;;16.13;92.25
81913;BME280;71377;50.698;7.164;2023-10-08T08:00:30;101901.78;;;16.23;91.62
81913;BME280;71377;50.698;7.164;2023-10-08T08:03:05;101908.53;;;16.32;90.83
81913;BME280;71377;50.698;7.164;2023-10-08T08:05:34;101910.09;;;16.59;90.58
81913;BME280;71377;50.698;7.164;2023-10-08T08:08:00;101917.06;;;16.84;88.65
81913;BME280;71377;50.698;7.164;2023-10-08T08:10:32;101924.63;;;16.94;86.94
81913;BME280;71377;50.698;7.164;2023-10-08T08:13:04;101929.09;;;17.14;85.88
81913;BME280;71377;50.698;7.164;2023-10-08T08:15:35;101921.13;;;17.14;85.71
81913;BME280;71377;50.698;7.164;2023-10-08T08:18:07;101920.72;;;17.23;85.45
81913;BME280;71377;50.698;7.164;2023-10-08T08:20:36;101923.66;;;17.38;82.62
81913;BME280;71377;50.698;7.164;2023-10-08T08:23:09;101930.97;;;17.33;83.01
81913;BME280;71377;50.698;7.164;2023-10-08T08:25:41;101928.38;;;17.31;83.85
81913;BME280;71377;50.698;7.164;2023-10-08T08:28:26;101925.69;;;17.51;82.94
81913;BME280;71377;50.698;7.164;2023-10-08T08:31:04;101929.03;;;17.57;81.84
81913;BME280;71377;50.698;7.164;2023-10-08T08:33:40;101936.16;;;17.76;81.38
81913;BME280;71377;50.698;7.164;2023-10-08T08:36:20;101921.13;;;17.75;81.62
81913;BME280;71377;50.698;7.164;2023-10-08T08:38:48;101930.59;;;18.01;79.90
81913;BME280;71377;50.698;7.164;2023-10-08T08:41:15;101929.31;;;18.10;79.73
81913;BME280;71377;50.698;7.164;2023-10-08T08:43:48;101922.47;;;18.23;77.76
81913;BME280;71377;50.698;7.164;2023-10-08T08:46:15;101918.81;;;18.45;76.78
81913;BME280;71377;50.698;7.164;2023-10-08T08:48:44;101928.22;;;18.52;71.82
81913;BME280;71377;50.698;7.164;2023-10-08T08:51:14;101929.28;;;18.85;71.86
81913;BME280;71377;50.698;7.164;2023-10-08T08:53:40;101935.31;;;18.89;70.54
81913;BME280;71377;50.698;7.164;2023-10-08T08:56:09;101940.88;;;19.19;70.37
81913;BME280;71377;50.698;7.164;2023-10-08T08:58:36;101931.16;;;19.35;69.66
81913;BME280;71377;50.698;7.164;2023-10-08T09:01:07;101938.38;;;19.51;67.50
81913;BME280;71377;50.698;7.164;2023-10-08T09:03:39;101930.84;;;19.41;68.52
81913;BME280;71377;50.698;7.164;2023-10-08T09:06:06;101932.72;;;19.74;65.74
81913;BME280;71377;50.698;7.164;2023-10-08T09:08:33;101935.09;;;19.63;66.07
81913;BME280;71377;50.698;7.164;2023-10-08T09:11:01;101943.84;;;19.82;66.97
81913;BME280;71377;50.698;7.164;2023-10-08T09:13:27;101947.72;;;19.59;67.01
81913;BME280;71377;50.698;7.164;2023-10-08T09:18:30;101940.69;;;19.91;66.12
81913;BME280;71377;50.698;7.164;2023-10-08T09:21:12;101941.50;;;19.76;66.35
81913;BME280;71377;50.698;7.164;2023-10-08T09:23:43;101948.84;;;19.54;66.50
81913;BME280;71377;50.698;7.164;2023-10-08T09:26:10;101949.66;;;19.56;67.20
81913;BME280;71377;50.698;7.164;2023-10-08T09:28:44;101942.47;;;19.40;68.04
81913;BME280;71377;50.698;7.164;2023-10-08T09:31:13;101942.94;;;19.66;67.23
81913;BME280;71377;50.698;7.164;2023-10-08T09:33:40;101944.16;;;19.76;66.52
81913;BME280;71377;50.698;7.164;2023-10-08T09:36:10;101941.16;;;19.99;65.68
81913;BME280;71377;50.698;7.164;2023-10-08T09:38:42;101935.47;;;19.55;67.22
81913;BME280;71377;50.698;7.164;2023-10-08T09:41:10;101937.59;;;19.66;67.45
81913;BME280;71377;50.698;7.164;2023-10-08T09:43:40;101935.59;;;19.87;66.25
81913;BME280;71377;50.698;7.164;2023-10-08T09:46:19;101953.97;;;20.09;66.33
81913;BME280;71377;50.698;7.164;2023-10-08T09:48:51;101955.56;;;20.28;65.00
81913;BME280;71377;50.698;7.164;2023-10-08T09:51:23;101952.38;;;20.38;65.03
81913;BME280;71377;50.698;7.164;2023-10-08T09:54:09;101952.94;;;20.44;64.40
81913;BME280;71377;50.698;7.164;2023-10-08T09:56:37;101957.47;;;20.58;64.24
81913;BME280;71377;50.698;7.164;2023-10-08T09:59:06;101966.31;;;20.27;64.72
81913;BME280;71377;50.698;7.164;2023-10-08T10:01:39;101962.56;;;20.14;65.98
81913;BME280;71377;50.698;7.164;2023-10-08T10:04:10;101969.38;;;20.68;64.17
81913;BME280;71377;50.698;7.164;2023-10-08T10:06:37;101975.16;;;20.76;64.22
81913;BME280;71377;50.698;7.164;2023-10-08T10:09:06;101970.56;;;20.94;63.28
81913;BME280;71377;50.698;7.164;2023-10-08T10:11:48;101970.47;;;20.96;63.93
81913;BME280;71377;50.698;7.164;2023-10-08T10:14:23;101975.97;;;21.08;63.19
81913;BME280;71377;50.698;7.164;2023-10-08T10:17:19;101981.16;;;20.96;63.20
81913;BME280;71377;50.698;7.164;2023-10-08T10:20:10;101987.47;;;20.79;64.64
81913;BME280;71377;50.698;7.164;2023-10-08T10:22:40;101993.56;;;20.49;65.98
81913;BME280;71377;50.698;7.164;2023-10-08T10:25:09;101984.78;;;20.79;65.18
81913;BME280;71377;50.698;7.164;2023-10-08T10:30:22;101986.13;;;21.02;64.41
81913;BME280;71377;50.698;7.164;2023-10-08T10:32:54;101988.03;;;21.00;63.94
81913;BME280;71377;50.698;7.164;2023-10-08T10:35:21;101978.38;;;21.29;62.50
81913;BME280;71377;50.698;7.164;2023-10-08T10:37:48;101988.69;;;21.35;62.71
81913;BME280;71377;50.698;7.164;2023-10-08T10:40:30;101982.13;;;20.79;64.79
81913;BME280;71377;50.698;7.164;2023-10-08T10:43:06;101979.53;;;21.39;62.91
81913;BME280;71377;50.698;7.164;2023-10-08T10:45:33;101984.28;;;21.64;61.95
81913;BME280;71377;50.698;7.164;2023-10-08T10:48:03;101991.03;;;21.09;63.51
81913;BME280;71377;50.698;7.164;2023-10-08T10:50:50;101998.19;;;20.93;65.39
81913;BME280;71377;50.698;7.164;2023-10-08T10:53:33;101987.53;;;20.93;64.02
81913;BME280;71377;50.698;7.164;2023-10-08T10:56:00;101983.31;;;21.05;63.58
81913;BME280;71377;50.698;7.164;2023-10-08T10:58:35;101981.50;;;21.65;61.32
81913;BME280;71377;50.698;7.164;2023-10-08T11:01:05;101979.00;;;21.48;61.30
81913;BME280;71377;50.698;7.164;2023-10-08T11:03:51;101982.50;;;21.93;60.90
81913;BME280;71377;50.698;7.164;2023-10-08T11:06:19;101976.16;;;21.65;62.09
81913;BME280;71377;50.698;7.164;2023-10-08T11:08:51;101981.81;;;21.75;60.99
81913;BME280;71377;50.698;7.164;2023-10-08T11:11:25;101968.53;;;21.29;63.24
81913;BME280;71377;50.698;7.164;2023-10-08T11:13:57;101961.69;;;21.24;63.58
81913;BME280;71377;50.698;7.164;2023-10-08T11:16:27;101968.63;;;21.86;61.00
81913;BME280;71377;50.698;7.164;2023-10-08T11:18:58;101960.41;;;22.32;58.83
81913;BME280;71377;50.698;7.164;2023-10-08T11:21:27;101976.09;;;21.95;60.60
81913;BME280;71377;50.698;7.164;2023-10-08T11:24:00;101963.41;;;22.13;60.46
81913;BME280;71377;50.698;7.164;2023-10-08T11:26:35;101961.31;;;22.18;60.00
81913;BME280;71377;50.698;7.164;2023-10-08T11:29:06;101954.84;;;21.50;62.41
81913;BME280;71377;50.698;7.164;2023-10-08T11:31:41;101947.13;;;22.31;61.10
81913;BME280;71377;50.698;7.164;2023-10-08T11:34:11;101946.75;;;22.78;57.82
81913;BME280;71377;50.698;7.164;2023-10-08T11:36:40;101945.66;;;22.95;57.75
81913;BME280;71377;50.698;7.164;2023-10-08T11:39:15;101954.19;;;23.27;56.49
81913;BME280;71377;50.698;7.164;2023-10-08T11:42:01;101939.22;;;23.50;56.36
81913;BME280;71377;50.698;7.164;2023-10-08T11:44:31;101935.13;;;22.92;58.19
81913;BME280;71377;50.698;7.164;2023-10-08T11:47:04;101946.91;;;22.48;59.14
81913;BME280;71377;50.698;7.164;2023-10-08T11:49:39;101944.28;;;22.19;60.60
81913;BME280;71377;50.698;7.164;2023-10-08T11:52:13;101942.22;;;21.52;63.06
81913;BME280;71377;50.698;7.164;2023-10-08T11:54:47;101939.28;;;21.85;61.90
81913;BME280;71377;50.698;7.164;2023-10-08T11:57:15;101935.66;;;22.28;60.98
81913;BME280;71377;50.698;7.164;2023-10-08T11:59:48;101930.22;;;22.01;62.54
81913;BME280;71377;50.698;7.164;2023-10-08T12:02:14;101930.72;;;22.08;61.90
81913;BME280;71377;50.698;7.164;2023-10-08T12:04:43;101925.91;;;21.70;63.80
81913;BME280;71377;50.698;7.164;2023-10-08T12:07:11;101935.31;;;22.62;60.57
81913;BME280;71377;50.698;7.164;2023-10-08T12:09:39;101927.53;;;23.38;58.00
81913;BME280;71377;50.698;7.164;2023-10-08T12:12:07;101931.31;;;22.81;57.85
81913;BME280;71377;50.698;7.164;2023-10-08T12:14:40;101926.34;;;23.29;57.17
81913;BME280;71377;50.698;7.164;2023-10-08T12:17:06;101936.63;;;22.42;60.46
81913;BME280;71377;50.698;7.164;2023-10-08T12:19:38;101915.59;;;22.63;60.75
81913;BME280;71377;50.698;7.164;2023-10-08T12:22:09;101916.88;;;23.24;57.69
81913;BME280;71377;50.698;7.164;2023-10-08T12:24:35;101920.09;;;24.05;55.16
81913;BME280;71377;50.698;7.164;2023-10-08T12:27:02;101917.53;;;24.16;54.85
81913;BME280;71377;50.698;7.164;2023-10-08T12:29:29;101914.44;;;24.46;53.27
81913;BME280;71377;50.698;7.164;2023-10-08T12:31:59;101920.03;;;23.56;56.53
81913;BME280;71377;50.698;7.164;2023-10-08T12:34:26;101916.06;;;22.69;60.21
81913;BME280;71377;50.698;7.164;2023-10-08T12:36:56;101917.47;;;23.02;57.63
81913;BME280;71377;50.698;7.164;2023-10-08T12:39:22;101909.75;;;23.10;58.11
81913;BME280;71377;50.698;7.164;2023-10-08T12:41:54;101896.16;;;23.13;58.38
81913;BME280;71377;50.698;7.164;2023-10-08T12:44:20;101888.13;;;23.13;58.54
81913;BME280;71377;50.698;7.164;2023-10-08T12:46:47;101901.63;;;23.24;57.52
81913;BME280;71377;50.698;7.164;2023-10-08T12:49:15;101910.13;;;22.37;60.53
81913;BME280;71377;50.698;7.164;2023-10-08T12:51:41;101887.50;;;22.00;62.33
81913;BME280;71377;50.698;7.164;2023-10-08T12:54:11;101894.97;;;22.77;59.25
81913;BME280;71377;50.698;7.164;2023-10-08T12:56:39;101913.69;;;21.95;62.42
81913;BME280;71377;50.698;7.164;2023-10-08T12:59:12;101910.81;;;21.55;65.34
81913;BME280;71377;50.698;7.164;2023-10-08T13:01:50;101918.97;;;21.82;63.60
81913;BME280;71377;50.698;7.164;2023-10-08T13:04:23;101924.72;;;21.32;66.93
81913;BME280;71377;50.698;7.164;2023-10-08T13:07:01;101914.13;;;21.44;66.96
81913;BME280;71377;50.698;7.164;2023-10-08T13:09:31;101904.63;;;21.55;65.51
81913;BME280;71377;50.698;7.164;2023-10-08T13:11:58;101885.88;;;21.69;65.47
81913;BME280;71377;50.698;7.164;2023-10-08T13:14:26;101883.78;;;21.88;66.22
81913;BME280;71377;50.698;7.164;2023-10-08T13:16:52;101873.25;;;22.14;64.67
81913;BME280;71377;50.698;7.164;2023-10-08T13:19:22;101876.44;;;21.78;66.03